Gervais, Oregon
Current Conditions -  °F | °C
As of 6:53 PM on Friday 21 Nov 2014 (Local Time) from KUAO Reporting Station
Overcast Overcast  
Wind Chill: 13°   Ceiling: 1100
Heat Index: 13°   Visibility: 10mi
Dew Point: 11°   Wind: 20mph
Humidity: 89%   Direction: 190°S
Pressure: 29.46"   Gusts: 29mph
Location:  45.11°N, 122.9°W
Report Text: KUAO 220253Z AUTO 19017G25KT 10SM BKN011 OVC020 13/11 A2946 RMK AO2 PK WND 20034/0230 RAE53 SLP976 P0001 60002 T01280111 56016
Loading
Personal Weather Stations






























Interactive Weather Map New forecast layout! Learn more

10-Day Weather Forecast

Advertisements
Track Severe Weather on mobile